Time;durP1;ratioP1;P1;durP2;ratioP2;P2;SDS_P1;SDS_P2;PMS_P1;PMS_P2;Temp;Humidity;BMP_temperature;BMP_pressure;BME280_temperature;BME280_humidity;BME280_pressure;Samples;Min_cycle;Max_cycle;Signal;HPM_P1;HPM_P2
2021/03/02 00:01:56;;;;;;;14.90;10.15;;;;;;;3.49;63.13;100253.72;5113082;28;20485;-69
2021/03/02 00:04:23;;;;;;;16.35;10.35;;;;;;;3.35;63.58;100248.69;5112879;28;20516;-69
2021/03/02 00:06:51;;;;;;;17.00;12.07;;;;;;;3.20;63.62;100246.22;5113053;28;20089;-69
2021/03/02 00:09:18;;;;;;;18.85;11.55;;;;;;;3.03;64.10;100249.22;5112946;28;20122;-69
2021/03/02 00:11:47;;;;;;;20.30;12.18;;;;;;;2.93;64.51;100242.94;5113120;28;20069;-69
2021/03/02 00:14:14;;;;;;;19.33;10.70;;;;;;;2.86;64.79;100252.19;5111560;28;20051;-70
2021/03/02 00:16:43;;;;;;;18.48;11.93;;;;;;;2.85;64.75;100253.09;5112953;28;20396;-69
2021/03/02 00:19:15;;;;;;;17.25;10.82;;;;;;;2.91;65.45;100250.06;5112543;28;20055;-69
2021/03/02 00:21:48;;;;;;;19.05;11.15;;;;;;;3.09;65.10;100258.38;5112228;28;20047;-69
2021/03/02 00:24:23;;;;;;;16.60;10.35;;;;;;;3.26;64.80;100252.78;5112718;27;20051;-69
2021/03/02 00:26:54;;;;;;;17.30;10.48;;;;;;;3.40;64.37;100251.78;5112636;28;20202;-69
2021/03/02 00:29:21;;;;;;;20.05;10.75;;;;;;;3.34;63.86;100250.44;5112752;28;20050;-69
2021/03/02 00:31:49;;;;;;;14.75;9.77;;;;;;;3.16;64.02;100252.59;5112800;28;20071;-70
2021/03/02 00:34:18;;;;;;;20.17;10.30;;;;;;;3.02;64.34;100251.91;5112783;28;20460;-69
2021/03/02 00:36:45;;;;;;;15.25;9.57;;;;;;;2.97;64.61;100254.84;5113142;28;20093;-69
2021/03/02 00:39:12;;;;;;;18.20;9.82;;;;;;;2.97;64.93;100254.84;5113490;28;20108;-69
2021/03/02 00:41:39;;;;;;;14.43;9.52;;;;;;;3.01;64.89;100250.25;5114112;28;20122;-69
2021/03/02 00:44:06;;;;;;;16.52;10.15;;;;;;;3.03;64.75;100251.00;5112899;28;20036;-69
2021/03/02 00:46:33;;;;;;;15.45;10.23;;;;;;;3.03;64.63;100254.44;5112653;28;20076;-69
2021/03/02 00:49:00;;;;;;;14.40;9.75;;;;;;;2.99;64.30;100252.97;5112522;28;20035;-69
2021/03/02 00:51:28;;;;;;;16.30;10.77;;;;;;;2.92;64.62;100256.97;5111201;28;20134;-69
2021/03/02 00:53:55;;;;;;;18.58;10.38;;;;;;;2.91;64.68;100256.13;5112398;28;20617;-70
2021/03/02 00:56:22;;;;;;;17.92;11.38;;;;;;;2.88;64.47;100251.13;5110924;28;20051;-69
2021/03/02 00:58:49;;;;;;;19.33;10.60;;;;;;;2.75;64.69;100252.09;5112054;28;20486;-70
2021/03/02 01:01:16;;;;;;;13.73;9.48;;;;;;;2.63;64.84;100252.00;5111165;28;20071;-69
2021/03/02 01:03:44;;;;;;;14.20;10.13;;;;;;;2.53;65.30;100250.13;5112397;28;20040;-69
2021/03/02 01:06:13;;;;;;;15.45;9.98;;;;;;;2.43;65.69;100252.53;5110994;28;20040;-70
2021/03/02 01:08:42;;;;;;;16.92;9.68;;;;;;;2.36;65.89;100254.72;5110924;28;20536;-69
2021/03/02 01:11:09;;;;;;;16.20;10.57;;;;;;;2.31;66.12;100256.00;5111009;28;20070;-69
2021/03/02 01:13:36;;;;;;;13.70;9.18;;;;;;;2.28;66.18;100264.84;5111024;28;20044;-69
2021/03/02 01:16:05;;;;;;;13.57;9.52;;;;;;;2.29;66.46;100247.44;5112198;28;20066;-69
2021/03/02 01:18:32;;;;;;;17.23;10.15;;;;;;;2.31;66.41;100251.59;5111878;28;20485;-69
2021/03/02 01:20:59;;;;;;;15.43;10.07;;;;;;;2.35;66.67;100252.22;5112348;28;20043;-69
2021/03/02 01:23:26;;;;;;;15.40;9.45;;;;;;;2.40;66.62;100243.13;5110937;28;20054;-70
2021/03/02 01:25:53;;;;;;;17.65;9.10;;;;;;;2.45;66.56;100248.06;5111764;28;20097;-69
2021/03/02 01:28:20;;;;;;;18.98;10.15;;;;;;;2.51;66.49;100249.41;5111913;28;20153;-69
2021/03/02 01:30:46;;;;;;;16.75;10.85;;;;;;;2.57;66.27;100251.56;5112080;28;20047;-69
2021/03/02 01:33:13;;;;;;;14.85;10.20;;;;;;;2.56;65.99;100244.69;5111849;28;20054;-69
2021/03/02 01:35:41;;;;;;;15.45;9.95;;;;;;;2.56;66.08;100242.91;5115898;28;20490;-69
2021/03/02 01:38:08;;;;;;;15.23;10.02;;;;;;;2.54;66.16;100247.41;5115637;28;20501;-69
2021/03/02 01:40:34;;;;;;;16.40;9.93;;;;;;;2.56;66.14;100244.69;5114539;28;20058;-69
2021/03/02 01:43:02;;;;;;;16.52;10.15;;;;;;;2.61;66.32;100247.81;5115851;28;20498;-70
2021/03/02 01:45:29;;;;;;;16.48;10.55;;;;;;;2.70;66.16;100248.03;5115542;28;20046;-69
2021/03/02 01:47:56;;;;;;;16.75;10.73;;;;;;;2.71;65.68;100243.63;5115706;28;20047;-69
2021/03/02 01:50:23;;;;;;;17.95;11.57;;;;;;;2.52;65.40;100245.84;5115659;27;20036;-70
2021/03/02 01:52:51;;;;;;;17.20;10.65;;;;;;;2.30;65.77;100243.88;5115684;28;20513;-70
2021/03/02 01:55:18;;;;;;;18.00;10.82;;;;;;;2.11;66.46;100239.06;5115486;28;20047;-69
2021/03/02 01:57:46;;;;;;;18.17;10.48;;;;;;;2.01;67.07;100244.06;5114103;28;20578;-69
2021/03/02 02:00:21;;;;;;;18.60;11.52;;;;;;;2.17;66.93;100243.88;5115387;28;20090;-70
2021/03/02 02:02:57;;;;;;;19.13;11.82;;;;;;;1.96;67.21;100240.94;5115536;28;20048;-70
2021/03/02 02:05:26;;;;;;;18.55;11.63;;;;;;;1.92;67.07;100235.09;5115300;28;20070;-70
2021/03/02 02:07:57;;;;;;;20.52;12.15;;;;;;;1.95;67.13;100245.31;5115187;28;20052;-69
2021/03/02 02:10:42;;;;;;;19.67;11.98;;;;;;;1.93;67.46;100241.16;5114034;28;20071;-69
2021/03/02 02:13:19;;;;;;;18.00;11.35;;;;;;;1.96;67.35;100239.19;5128381;28;20028;-71
2021/03/02 02:15:48;;;;;;;18.77;12.20;;;;;;;1.94;67.17;100235.81;5141992;28;20047;-71
2021/03/02 02:18:21;;;;;;;17.80;11.02;;;;;;;1.82;67.40;100239.25;5130864;27;20571;-69
2021/03/02 02:20:56;;;;;;;19.38;12.15;;;;;;;1.81;67.56;100237.56;5115458;27;20158;-69
2021/03/02 02:23:35;;;;;;;15.70;10.45;;;;;;;1.72;67.56;100236.41;5115406;28;20055;-69
2021/03/02 02:26:10;;;;;;;18.10;10.93;;;;;;;1.74;67.71;100241.53;5114854;28;20519;-70
2021/03/02 02:28:41;;;;;;;16.90;10.15;;;;;;;1.80;68.08;100242.91;5115210;28;20063;-69
2021/03/02 02:31:09;;;;;;;26.88;12.63;;;;;;;1.91;67.90;100238.63;5115137;28;20148;-70
2021/03/02 02:33:39;;;;;;;24.20;11.55;;;;;;;1.92;67.48;100242.09;5114885;28;20554;-70
2021/03/02 02:36:09;;;;;;;18.08;9.70;;;;;;;1.86;67.44;100237.28;5114793;28;20040;-69
2021/03/02 02:38:38;;;;;;;15.38;9.75;;;;;;;1.73;67.36;100237.25;5114545;28;20036;-69
2021/03/02 02:41:06;;;;;;;15.98;10.23;;;;;;;1.61;67.58;100233.66;5114789;28;20048;-69
2021/03/02 02:43:34;;;;;;;14.98;10.10;;;;;;;1.57;67.86;100234.81;5114729;28;20043;-69
2021/03/02 02:46:02;;;;;;;16.67;8.93;;;;;;;1.61;68.50;100230.22;5113881;28;20552;-70
2021/03/02 02:48:31;;;;;;;14.85;9.27;;;;;;;1.72;68.09;100228.59;5114441;28;20401;-69
2021/03/02 02:50:59;;;;;;;12.15;8.07;;;;;;;1.70;67.94;100229.63;5114511;28;20064;-70
2021/03/02 02:53:25;;;;;;;14.40;9.65;;;;;;;1.59;67.61;100232.09;5114521;28;20043;-69
2021/03/02 02:55:55;;;;;;;19.55;11.45;;;;;;;1.43;67.97;100234.88;5114439;28;20050;-69
2021/03/02 02:58:27;;;;;;;18.90;10.80;;;;;;;1.32;68.33;100230.34;5112747;28;20050;-69
2021/03/02 03:00:57;;;;;;;17.58;10.07;;;;;;;1.29;68.56;100238.34;5114419;28;20063;-70
2021/03/02 03:03:27;;;;;;;14.85;9.88;;;;;;;1.28;68.84;100228.06;5114286;28;20062;-69
2021/03/02 03:05:58;;;;;;;15.93;9.93;;;;;;;1.28;68.62;100230.66;5114161;27;20451;-69
2021/03/02 03:08:30;;;;;;;16.17;9.98;;;;;;;1.19;68.73;100232.91;5113995;28;20040;-69
2021/03/02 03:10:58;;;;;;;15.00;9.02;;;;;;;1.16;69.29;100232.28;5114110;28;20044;-70
2021/03/02 03:13:29;;;;;;;15.25;9.85;;;;;;;1.28;69.15;100228.88;5112841;28;20047;-70
2021/03/02 03:16:00;;;;;;;14.38;9.27;;;;;;;1.35;68.74;100235.38;5113878;28;20043;-69
2021/03/02 03:18:32;;;;;;;15.80;9.60;;;;;;;1.34;68.53;100227.63;5113945;28;20101;-69
2021/03/02 03:21:00;;;;;;;15.35;9.27;;;;;;;1.22;68.33;100224.91;5114032;28;20051;-69
2021/03/02 03:23:30;;;;;;;16.25;10.60;;;;;;;1.13;68.73;100227.25;5113814;28;20035;-70
2021/03/02 03:25:58;;;;;;;14.45;9.40;;;;;;;1.06;69.26;100232.03;5113591;28;20052;-70
2021/03/02 03:28:25;;;;;;;15.57;9.23;;;;;;;1.16;69.42;100229.66;5113599;28;20047;-69
2021/03/02 03:30:53;;;;;;;18.65;9.57;;;;;;;1.20;69.04;100226.75;5113696;28;20055;-69
2021/03/02 03:33:21;;;;;;;15.35;9.57;;;;;;;1.23;69.10;100234.38;5113680;28;20122;-69
2021/03/02 03:35:51;;;;;;;17.13;9.63;;;;;;;1.35;69.02;100237.16;5113403;28;20043;-69
2021/03/02 03:38:18;;;;;;;16.67;9.55;;;;;;;1.37;68.94;100238.69;5113253;28;20043;-69
2021/03/02 03:40:44;;;;;;;16.77;10.00;;;;;;;1.49;68.72;100232.69;5113629;28;20044;-69
2021/03/02 03:43:12;;;;;;;16.80;9.65;;;;;;;1.57;68.60;100231.38;5113482;28;20093;-69
2021/03/02 03:45:39;;;;;;;18.08;10.63;;;;;;;1.60;68.25;100231.19;5113314;28;20039;-69
2021/03/02 03:48:07;;;;;;;15.93;8.98;;;;;;;1.60;68.59;100239.00;5113222;28;20047;-70
2021/03/02 03:50:34;;;;;;;19.45;10.32;;;;;;;1.62;67.96;100229.28;5113323;28;20054;-70
2021/03/02 03:53:03;;;;;;;16.08;9.70;;;;;;;1.43;67.86;100237.50;5113315;28;20058;-69
2021/03/02 03:55:33;;;;;;;16.58;10.40;;;;;;;1.30;68.67;100236.59;5113218;27;20048;-70
2021/03/02 03:58:01;;;;;;;18.65;10.07;;;;;;;1.18;68.29;100241.66;5112183;28;20044;-69
2021/03/02 04:00:29;;;;;;;16.23;9.40;;;;;;;1.10;68.58;100243.94;5113078;28;20051;-70
2021/03/02 04:02:57;;;;;;;16.65;9.95;;;;;;;1.09;68.93;100237.03;5113599;28;20040;-69
2021/03/02 04:05:24;;;;;;;13.05;9.13;;;;;;;1.10;68.93;100237.84;5113762;28;20048;-69
2021/03/02 04:07:52;;;;;;;17.08;9.98;;;;;;;1.05;68.92;100245.13;5113603;28;20035;-69
2021/03/02 04:10:21;;;;;;;15.15;9.63;;;;;;;0.96;68.85;100243.94;5113102;28;20031;-69
2021/03/02 04:12:47;;;;;;;17.77;10.93;;;;;;;0.87;68.99;100241.91;5111825;28;20113;-69
2021/03/02 04:15:28;;;;;;;14.57;9.82;;;;;;;0.88;69.43;100243.59;5112942;28;20100;-69
2021/03/02 04:17:57;;;;;;;14.15;9.68;;;;;;;0.93;69.34;100244.13;5112965;28;20031;-69
2021/03/02 04:20:25;;;;;;;17.55;10.43;;;;;;;0.88;69.40;100252.22;5112764;28;20131;-69
2021/03/02 04:22:52;;;;;;;19.40;10.30;;;;;;;0.86;69.42;100253.28;5111758;28;20039;-69
2021/03/02 04:25:19;;;;;;;16.48;9.63;;;;;;;0.82;69.66;100250.03;5111680;28;20055;-70
2021/03/02 04:27:46;;;;;;;17.77;10.43;;;;;;;0.79;69.65;100257.19;5112660;28;20043;-69
2021/03/02 04:30:13;;;;;;;16.08;10.15;;;;;;;0.76;69.77;100255.59;5112630;28;20035;-70
2021/03/02 04:32:40;;;;;;;16.17;9.65;;;;;;;0.71;69.71;100253.28;5112706;28;20485;-69
2021/03/02 04:35:08;;;;;;;17.27;10.10;;;;;;;0.74;69.95;100255.69;5112436;28;20048;-69
2021/03/02 04:37:36;;;;;;;17.17;9.82;;;;;;;0.78;70.00;100253.75;5112563;28;20561;-69
2021/03/02 04:40:05;;;;;;;19.42;9.65;;;;;;;0.82;69.66;100257.84;5111180;28;20039;-70
2021/03/02 04:42:32;;;;;;;16.20;9.77;;;;;;;0.83;69.71;100261.28;5112587;28;20404;-70
2021/03/02 04:44:59;;;;;;;17.40;9.90;;;;;;;0.91;69.83;100259.84;5112409;28;20048;-69
2021/03/02 04:47:26;;;;;;;14.30;9.73;;;;;;;0.94;69.58;100266.66;5112645;28;20516;-69
2021/03/02 04:49:53;;;;;;;17.05;10.60;;;;;;;0.85;69.37;100264.59;5112290;28;20054;-69
2021/03/02 04:52:19;;;;;;;16.20;10.13;;;;;;;0.80;69.77;100261.44;5112564;28;20505;-69
2021/03/02 04:54:46;;;;;;;15.52;9.77;;;;;;;0.74;69.61;100266.09;5112519;28;20058;-69
2021/03/02 04:57:13;;;;;;;16.13;10.02;;;;;;;0.69;69.83;100275.13;5112541;28;20040;-69
2021/03/02 04:59:40;;;;;;;17.10;9.90;;;;;;;0.60;69.66;100266.09;5112192;28;20043;-69
2021/03/02 05:02:07;;;;;;;15.55;10.43;;;;;;;0.53;69.98;100269.16;5112646;28;20123;-69
2021/03/02 05:04:34;;;;;;;16.55;10.10;;;;;;;0.45;70.09;100265.28;5112572;28;20040;-69
2021/03/02 05:07:01;;;;;;;16.15;10.27;;;;;;;0.43;70.36;100266.28;5112332;28;20077;-69
2021/03/02 05:09:28;;;;;;;19.27;10.13;;;;;;;0.48;70.40;100266.84;5115322;28;20058;-69
2021/03/02 05:11:54;;;;;;;18.65;10.77;;;;;;;0.45;70.29;100272.25;5116422;28;20048;-70
2021/03/02 05:14:21;;;;;;;16.75;10.35;;;;;;;0.42;70.29;100270.66;5114848;28;20051;-70
2021/03/02 05:16:49;;;;;;;15.38;9.40;;;;;;;0.39;70.38;100262.19;5114988;28;20051;-70
2021/03/02 05:19:16;;;;;;;16.90;10.55;;;;;;;0.36;70.29;100271.00;5114645;28;20043;-70
2021/03/02 05:21:43;;;;;;;16.30;9.93;;;;;;;0.33;70.39;100275.59;5116134;28;20123;-70
2021/03/02 05:24:10;;;;;;;16.42;9.63;;;;;;;0.40;70.80;100269.06;5115974;28;20074;-70
2021/03/02 05:26:37;;;;;;;16.85;8.98;;;;;;;0.42;70.55;100267.22;5115917;28;20374;-70
2021/03/02 05:29:04;;;;;;;19.00;10.77;;;;;;;0.40;70.58;100269.91;5114591;28;20044;-70
2021/03/02 05:31:30;;;;;;;15.38;9.57;;;;;;;0.40;70.56;100272.50;5114636;28;20055;-70
2021/03/02 05:33:58;;;;;;;14.90;10.15;;;;;;;0.42;70.41;100268.06;5115936;27;20052;-70
2021/03/02 05:36:25;;;;;;;14.88;10.25;;;;;;;0.38;70.38;100269.19;5115797;28;20043;-70
2021/03/02 05:38:52;;;;;;;16.80;10.10;;;;;;;0.38;70.59;100269.19;5115507;27;20046;-70
2021/03/02 05:41:19;;;;;;;18.33;10.15;;;;;;;0.37;70.46;100270.09;5115884;27;20047;-70
2021/03/02 05:43:46;;;;;;;19.23;11.88;;;;;;;0.39;70.48;100277.81;5115888;28;20409;-70
2021/03/02 05:46:30;;;;;;;;;;;;;;;0.43;70.71;100280.13;5121640;28;20034;-73
2021/03/02 05:48:58;;;;;;;19.10;10.40;;;;;;;0.52;70.74;100280.50;5141204;28;19908;-71
2021/03/02 05:51:25;;;;;;;18.45;10.30;;;;;;;0.66;70.54;100283.97;5139374;28;20044;-70
2021/03/02 05:53:53;;;;;;;17.92;9.88;;;;;;;0.74;70.18;100286.94;5114687;28;20036;-70
2021/03/02 05:56:20;;;;;;;16.23;9.38;;;;;;;0.76;70.02;100281.63;5116010;28;20044;-70
2021/03/02 05:58:46;;;;;;;19.05;10.68;;;;;;;0.72;69.75;100277.53;5115229;28;20088;-70
2021/03/02 06:01:13;;;;;;;19.25;11.38;;;;;;;0.68;69.79;100283.84;5115477;27;20043;-70
2021/03/02 06:03:40;;;;;;;20.63;10.77;;;;;;;0.64;69.06;100283.19;5115322;28;20047;-70
2021/03/02 06:06:08;;;;;;;16.38;10.40;;;;;;;0.51;69.53;100287.47;5115244;28;20055;-70
2021/03/02 06:08:34;;;;;;;17.35;10.52;;;;;;;0.47;69.59;100286.81;5115063;28;20046;-70
2021/03/02 06:11:22;;;;;;;19.42;10.63;;;;;;;0.41;70.13;100291.59;5115243;28;20048;-71
2021/03/02 06:13:49;;;;;;;17.30;10.50;;;;;;;0.37;70.22;100290.09;5115251;28;20591;-70
2021/03/02 06:16:16;;;;;;;14.65;9.82;;;;;;;0.33;70.27;100297.22;5114967;28;20047;-70
2021/03/02 06:18:48;;;;;;;17.75;10.73;;;;;;;0.34;70.34;100290.25;5114831;28;20040;-70
2021/03/02 06:21:16;;;;;;;18.42;10.68;;;;;;;0.43;70.52;100303.56;5114096;28;20043;-70
2021/03/02 06:23:48;;;;;;;18.13;10.40;;;;;;;0.48;70.35;100305.88;5115014;28;20036;-70
2021/03/02 06:26:23;;;;;;;18.67;10.60;;;;;;;0.44;70.11;100307.81;5115651;28;20047;-70
2021/03/02 06:28:52;;;;;;;21.15;10.85;;;;;;;0.45;70.44;100306.91;5114824;28;20069;-70
2021/03/02 06:31:33;;;;;;;17.30;10.32;;;;;;;0.58;70.43;100309.63;5113676;28;20066;-70
2021/03/02 06:34:09;;;;;;;17.95;10.30;;;;;;;0.64;70.05;100311.84;5113448;28;20052;-70
2021/03/02 06:36:38;;;;;;;16.30;11.10;;;;;;;0.61;69.97;100313.78;5114885;28;20039;-70
2021/03/02 06:39:30;;;;;;;19.63;10.38;;;;;;;0.63;69.65;100315.38;5114552;28;20039;-70
2021/03/02 06:42:14;;;;;;;16.00;9.77;;;;;;;0.55;69.58;100319.38;5114791;28;20054;-70
2021/03/02 06:44:42;;;;;;;19.77;11.82;;;;;;;0.49;70.02;100321.41;5114527;28;20044;-70
2021/03/02 06:47:30;;;;;;;16.90;10.93;;;;;;;0.59;70.25;100323.47;5114484;28;20081;-69
2021/03/02 06:49:58;;;;;;;18.52;10.05;;;;;;;0.66;70.08;100324.78;5114273;28;20567;-70
2021/03/02 06:52:26;;;;;;;17.90;10.48;;;;;;;0.70;70.28;100326.25;5114481;28;20047;-70
2021/03/02 06:54:53;;;;;;;14.00;9.50;;;;;;;0.73;69.84;100326.06;5114275;28;20040;-70
2021/03/02 06:57:20;;;;;;;14.98;9.82;;;;;;;0.80;70.01;100329.13;5114322;28;20051;-70
2021/03/02 06:59:51;;;;;;;17.83;10.40;;;;;;;0.91;69.75;100335.38;5112767;28;20051;-70
2021/03/02 07:02:31;;;;;;;18.05;9.95;;;;;;;1.05;69.37;100339.72;5114189;28;20119;-70
2021/03/02 07:05:09;;;;;;;16.58;10.10;;;;;;;1.13;69.25;100331.44;5114159;28;20405;-70
2021/03/02 07:07:37;;;;;;;17.25;11.23;;;;;;;1.17;69.08;100338.13;5114235;27;20043;-69
2021/03/02 07:10:06;;;;;;;17.35;10.43;;;;;;;1.21;68.71;100340.44;5112822;28;20042;-69
2021/03/02 07:12:36;;;;;;;18.15;10.32;;;;;;;1.14;68.56;100341.78;5114056;28;20050;-70
2021/03/02 07:15:05;;;;;;;19.85;11.43;;;;;;;1.16;68.59;100344.28;5113951;28;20061;-70
2021/03/02 07:17:36;;;;;;;19.63;11.68;;;;;;;1.13;68.67;100347.06;5114016;28;20067;-71
2021/03/02 07:20:09;;;;;;;20.50;11.35;;;;;;;1.15;68.74;100350.44;5113820;28;20040;-71
2021/03/02 07:22:37;;;;;;;17.52;11.50;;;;;;;1.15;68.57;100355.63;5113893;28;20051;-71
2021/03/02 07:25:09;;;;;;;18.38;10.77;;;;;;;1.18;68.65;100356.28;5114223;28;20043;-71
2021/03/02 07:27:41;;;;;;;17.13;10.32;;;;;;;1.19;68.37;100351.91;5112772;28;20044;-71
2021/03/02 07:30:09;;;;;;;16.58;10.38;;;;;;;1.27;68.84;100351.44;5113791;28;20045;-72
2021/03/02 07:32:36;;;;;;;14.65;9.70;;;;;;;1.35;68.76;100347.41;5113399;28;20123;-72
2021/03/02 07:35:06;;;;;;;18.45;11.13;;;;;;;1.40;68.50;100363.59;5113849;28;20054;-71
2021/03/02 07:37:34;;;;;;;21.13;11.90;;;;;;;1.45;68.44;100365.91;5113704;28;20044;-71
2021/03/02 07:40:03;;;;;;;20.70;11.55;;;;;;;1.56;68.72;100367.84;5113362;28;20040;-71
2021/03/02 07:42:30;;;;;;;17.08;10.95;;;;;;;1.67;68.40;100363.63;5112340;28;20509;-72
2021/03/02 07:45:06;;;;;;;15.73;11.02;;;;;;;1.83;68.38;100370.44;5113405;28;20044;-72
2021/03/02 07:47:52;;;;;;;;;;;;;;;1.99;68.23;100358.09;5113659;28;20039;-71
2021/03/02 07:50:21;;;;;;;18.88;10.73;;;;;;;2.05;67.65;100357.72;5113529;28;19923;-71
2021/03/02 07:52:49;;;;;;;19.05;11.52;;;;;;;2.08;68.04;100364.47;5113355;28;20497;-69
2021/03/02 07:55:19;;;;;;;17.90;11.27;;;;;;;2.24;68.12;100362.53;5111885;28;20125;-70
2021/03/02 07:57:46;;;;;;;16.13;10.57;;;;;;;2.42;67.99;100361.34;5112956;28;20043;-70
2021/03/02 08:00:23;;;;;;;19.20;11.63;;;;;;;2.59;67.91;100365.41;5113077;28;20484;-71
2021/03/02 08:03:27;;;;;;;18.83;10.38;;;;;;;2.79;67.65;100363.25;5111903;28;20714;-71
2021/03/02 08:05:59;;;;;;;17.27;10.60;;;;;;;2.98;67.02;100361.03;5112946;28;20172;-71
2021/03/02 08:08:30;;;;;;;15.57;9.98;;;;;;;2.93;66.71;100356.09;5112948;28;20043;-71
2021/03/02 08:10:58;;;;;;;20.13;10.20;;;;;;;2.97;67.10;100351.50;5112966;28;20035;-70
2021/03/02 08:13:36;;;;;;;18.27;10.73;;;;;;;3.12;66.76;100354.84;5112803;28;20047;-71
2021/03/02 08:16:05;;;;;;;17.05;11.25;;;;;;;3.18;66.82;100357.00;5111407;28;20044;-70
2021/03/02 08:18:34;;;;;;;22.13;11.63;;;;;;;3.31;67.08;100357.84;5112587;28;20043;-71
2021/03/02 08:21:06;;;;;;;17.05;10.73;;;;;;;3.48;66.67;100354.88;5112606;27;20043;-70
2021/03/02 08:23:54;;;;;;;18.67;12.07;;;;;;;3.63;66.46;100358.19;5112766;28;20486;-71
2021/03/02 08:26:30;;;;;;;22.30;11.50;;;;;;;3.78;66.43;100363.22;5112452;28;20044;-71
2021/03/02 08:29:08;;;;;;;18.35;11.32;;;;;;;3.90;66.12;100363.19;5112512;28;20417;-70
2021/03/02 08:31:35;;;;;;;14.95;11.02;;;;;;;4.05;66.13;100365.63;5112754;28;20047;-70
2021/03/02 08:34:04;;;;;;;20.08;12.00;;;;;;;4.18;65.60;100375.06;5113077;28;20054;-70
2021/03/02 08:36:32;;;;;;;18.30;10.63;;;;;;;4.29;65.33;100366.44;5112410;28;20078;-71
2021/03/02 08:38:59;;;;;;;19.95;12.43;;;;;;;4.38;65.04;100375.38;5110761;28;20043;-70
2021/03/02 08:41:36;;;;;;;24.77;12.52;;;;;;;4.51;64.90;100367.44;5112492;28;20036;-71
2021/03/02 08:44:04;;;;;;;20.23;12.88;;;;;;;4.62;64.87;100372.72;5111935;27;20071;-70
2021/03/02 08:46:32;;;;;;;19.00;11.27;;;;;;;4.75;64.68;100368.22;5112228;28;20043;-70
2021/03/02 08:49:08;;;;;;;21.65;12.63;;;;;;;4.91;64.41;100373.94;5112215;28;20414;-70
2021/03/02 08:51:36;;;;;;;21.83;12.48;;;;;;;5.00;64.24;100374.19;5112421;28;20043;-70
2021/03/02 08:54:03;;;;;;;25.38;15.18;;;;;;;5.15;64.27;100371.22;5112371;28;20493;-70
2021/03/02 08:56:31;;;;;;;20.40;13.07;;;;;;;5.29;63.94;100378.00;5110809;28;20039;-71
2021/03/02 08:59:06;;;;;;;21.00;13.38;;;;;;;5.43;63.84;100374.31;5111990;28;20044;-70
2021/03/02 09:01:35;;;;;;;20.40;12.43;;;;;;;5.54;63.71;100373.44;5112353;28;20048;-69
2021/03/02 09:04:08;;;;;;;20.60;13.60;;;;;;;5.63;63.53;100373.56;5112272;28;20122;-70
2021/03/02 09:06:35;;;;;;;23.20;14.18;;;;;;;5.81;63.40;100373.84;5112276;28;20039;-70
2021/03/02 09:09:05;;;;;;;21.67;12.93;;;;;;;5.92;63.26;100376.50;5110756;28;20071;-70
2021/03/02 09:11:34;;;;;;;21.95;12.88;;;;;;;6.01;63.04;100379.31;5111186;28;20048;-70
2021/03/02 09:14:02;;;;;;;19.75;13.45;;;;;;;6.19;62.78;100372.56;5112055;28;20124;-70
2021/03/02 09:16:36;;;;;;;19.67;14.00;;;;;;;6.35;62.19;100377.38;5112311;28;20047;-71
2021/03/02 09:19:12;;;;;;;19.67;12.65;;;;;;;6.48;61.85;100378.03;5112318;28;20036;-70
2021/03/02 09:21:41;;;;;;;20.17;13.15;;;;;;;6.60;62.01;100373.53;5124261;28;20043;-74
2021/03/02 09:24:08;;;;;;;18.88;12.48;;;;;;;6.74;61.82;100380.28;5138514;28;20028;-73
2021/03/02 09:26:35;;;;;;;17.65;13.77;;;;;;;6.90;61.52;100381.47;5134741;28;20127;-70
2021/03/02 09:29:09;;;;;;;24.25;12.38;;;;;;;7.05;61.06;100379.31;5112653;28;20044;-70
2021/03/02 09:31:38;;;;;;;21.05;13.00;;;;;;;7.17;60.89;100378.25;5111606;28;20047;-70
2021/03/02 09:34:05;;;;;;;17.65;12.73;;;;;;;7.35;59.83;100381.13;5110987;28;20036;-70
2021/03/02 09:36:33;;;;;;;17.38;11.50;;;;;;;7.48;59.78;100370.34;5112083;28;20039;-71
2021/03/02 09:39:16;;;;;;;16.77;12.38;;;;;;;7.67;59.17;100380.94;5111834;28;20110;-70
2021/03/02 09:41:46;;;;;;;20.08;12.27;;;;;;;7.79;58.87;100376.34;5110686;28;20051;-70
2021/03/02 09:44:27;;;;;;;16.77;11.70;;;;;;;7.89;58.71;100377.22;5111770;28;20051;-70
2021/03/02 09:46:57;;;;;;;15.73;11.30;;;;;;;8.05;58.41;100375.84;5112000;28;20058;-70
2021/03/02 09:49:40;;;;;;;16.13;10.43;;;;;;;8.16;57.88;100376.56;5111968;28;20054;-70
2021/03/02 09:52:23;;;;;;;17.25;11.43;;;;;;;8.28;57.06;100371.13;5112072;28;20047;-71
2021/03/02 09:55:15;;;;;;;17.02;11.48;;;;;;;8.36;56.43;100368.63;5114391;28;20047;-70
2021/03/02 09:57:48;;;;;;;16.38;11.10;;;;;;;8.42;56.92;100362.84;5116309;27;20043;-71
2021/03/02 10:00:16;;;;;;;16.80;11.00;;;;;;;8.54;56.28;100364.34;5115725;28;20054;-70
2021/03/02 10:02:49;;;;;;;14.55;11.15;;;;;;;8.70;56.09;100361.13;5115878;28;20047;-70
2021/03/02 10:05:39;;;;;;;18.27;10.55;;;;;;;8.76;55.90;100365.81;5115745;28;20490;-70
2021/03/02 10:08:34;;;;;;;18.88;12.43;;;;;;;8.93;55.50;100367.69;5114601;28;20047;-70
2021/03/02 10:11:04;;;;;;;17.08;10.88;;;;;;;9.06;55.59;100372.69;5102109;28;20054;-70
2021/03/02 10:13:33;;;;;;;20.35;10.93;;;;;;;9.30;54.69;100358.13;5114337;28;20054;-70
2021/03/02 10:16:19;;;;;;;15.85;11.27;;;;;;;9.39;54.29;100358.09;5113940;28;20047;-70
2021/03/02 10:18:52;;;;;;;12.85;9.63;;;;;;;9.48;53.82;100358.19;5115216;28;20452;-71
2021/03/02 10:21:20;;;;;;;15.77;11.67;;;;;;;9.55;54.08;100365.38;5115333;28;20036;-70
2021/03/02 10:23:48;;;;;;;19.02;11.98;;;;;;;9.63;53.81;100369.88;5115345;28;20623;-70
2021/03/02 10:26:24;;;;;;;14.82;10.77;;;;;;;9.69;53.82;100361.38;5115076;27;20061;-70
2021/03/02 10:28:50;;;;;;;16.75;10.52;;;;;;;9.71;54.12;100359.41;5113724;28;20059;-70
2021/03/02 10:31:17;;;;;;;17.38;10.80;;;;;;;9.90;53.53;100356.66;5115722;28;20051;-70
2021/03/02 10:33:45;;;;;;;13.93;10.00;;;;;;;10.07;52.26;100362.91;5115033;28;20035;-71
2021/03/02 10:36:18;;;;;;;13.57;10.18;;;;;;;10.08;52.39;100358.47;5114735;27;20075;-70
2021/03/02 10:38:45;;;;;;;13.23;10.38;;;;;;;10.23;51.82;100356.94;5114644;27;20043;-70
2021/03/02 10:41:12;;;;;;;14.10;9.43;;;;;;;10.27;51.61;100353.03;5114805;28;20048;-68
2021/03/02 10:43:38;;;;;;;14.02;10.63;;;;;;;10.36;51.88;100351.28;5114799;28;20493;-70
2021/03/02 10:46:05;;;;;;;16.40;11.40;;;;;;;10.49;51.26;100354.41;5114628;28;20048;-71
2021/03/02 10:48:32;;;;;;;15.13;10.52;;;;;;;10.65;50.47;100340.44;5115014;28;20754;-70
2021/03/02 10:50:59;;;;;;;15.73;11.02;;;;;;;10.78;50.30;100345.31;5115450;28;20042;-71
2021/03/02 10:53:27;;;;;;;16.58;11.35;;;;;;;10.98;49.49;100351.19;5115504;28;20050;-70
2021/03/02 10:55:53;;;;;;;18.40;10.77;;;;;;;11.06;48.78;100354.75;5115514;27;20052;-70
2021/03/02 10:58:20;;;;;;;14.63;10.15;;;;;;;11.16;48.46;100355.44;5115649;28;20105;-70
2021/03/02 11:00:47;;;;;;;13.68;9.57;;;;;;;11.17;48.79;100350.97;5115029;28;20051;-70
2021/03/02 11:03:15;;;;;;;15.75;9.95;;;;;;;11.34;48.75;100351.88;5114630;28;20054;-71
2021/03/02 11:05:42;;;;;;;15.77;11.15;;;;;;;11.50;47.56;100351.09;5113998;28;20044;-70
2021/03/02 11:08:09;;;;;;;15.32;10.73;;;;;;;11.56;47.23;100345.19;5113739;27;20494;-70
2021/03/02 11:10:36;;;;;;;14.73;9.75;;;;;;;11.69;46.06;100339.41;5113100;28;20106;-71
2021/03/02 11:13:04;;;;;;;15.80;10.35;;;;;;;11.73;45.84;100346.03;5112014;28;20040;-71
2021/03/02 11:15:31;;;;;;;17.55;10.65;;;;;;;11.78;46.02;100344.56;5114182;28;20121;-70
2021/03/02 11:17:57;;;;;;;14.90;10.65;;;;;;;11.90;45.40;100345.09;5114132;28;20047;-71
2021/03/02 11:20:35;;;;;;;18.13;10.98;;;;;;;11.95;44.76;100345.44;5112638;28;20139;-70
2021/03/02 11:23:02;;;;;;;16.65;10.25;;;;;;;11.95;44.89;100337.47;5114287;28;20054;-70
2021/03/02 11:25:33;;;;;;;16.00;10.48;;;;;;;12.03;43.89;100339.31;5114180;28;20469;-70
2021/03/02 11:28:00;;;;;;;17.55;11.77;;;;;;;12.13;42.93;100337.34;5114034;28;20063;-71
2021/03/02 11:30:31;;;;;;;18.67;9.70;;;;;;;12.18;43.35;100334.19;5114048;28;20467;-74
2021/03/02 11:32:57;;;;;;;15.93;11.63;;;;;;;12.33;42.30;100330.72;5113994;28;20040;-70